createdAt,value
2022-08-05T00:01:27.740Z,19.13
2022-08-05T00:03:55.074Z,19.14
2022-08-05T00:06:29.171Z,19.08
2022-08-05T00:09:00.935Z,19.09
2022-08-05T00:11:34.846Z,18.98
2022-08-05T00:14:17.054Z,18.10
2022-08-05T00:16:52.773Z,18.95
2022-08-05T00:19:24.888Z,18.95
2022-08-05T00:22:00.206Z,18.97
2022-08-05T00:24:31.033Z,18.90
2022-08-05T00:26:59.355Z,18.81
2022-08-05T00:29:37.618Z,17.21
2022-08-05T00:32:20.314Z,18.85
2022-08-05T00:35:03.424Z,18.78
2022-08-05T00:37:51.003Z,18.71
2022-08-05T00:40:27.506Z,18.68
2022-08-05T00:42:58.472Z,18.05
2022-08-05T00:45:39.115Z,18.62
2022-08-05T00:48:27.532Z,18.60
2022-08-05T00:51:00.830Z,18.59
2022-08-05T00:54:00.970Z,17.93
2022-08-05T00:56:23.104Z,17.72
2022-08-05T00:58:53.636Z,18.61
2022-08-05T01:01:24.719Z,18.33
2022-08-05T01:04:13.797Z,18.52
2022-08-05T01:06:40.921Z,18.51
2022-08-05T01:09:10.278Z,18.51
2022-08-05T01:11:39.826Z,18.49
2022-08-05T01:14:17.747Z,18.43
2022-08-05T01:17:00.157Z,18.25
2022-08-05T01:20:01.181Z,18.36
2022-08-05T01:22:28.094Z,18.31
2022-08-05T01:25:10.047Z,18.25
2022-08-05T01:28:08.827Z,18.17
2022-08-05T01:30:40.118Z,18.05
2022-08-05T01:33:22.039Z,18.15
2022-08-05T01:35:55.567Z,17.87
2022-08-05T01:38:29.180Z,18.18
2022-08-05T01:41:01.667Z,17.89
2022-08-05T01:43:29.801Z,17.94
2022-08-05T01:45:57.764Z,17.96
2022-08-05T01:48:29.590Z,18.11
2022-08-05T01:50:58.456Z,18.20
2022-08-05T01:53:54.982Z,18.17
2022-08-05T01:58:12.356Z,18.48
2022-08-05T01:59:26.033Z,18.50
2022-08-05T02:02:17.787Z,17.56
2022-08-05T02:04:59.074Z,18.44
2022-08-05T02:07:30.457Z,18.44
2022-08-05T02:09:58.367Z,18.44
2022-08-05T02:12:51.753Z,18.34
2022-08-05T02:15:53.090Z,18.30
2022-08-05T02:18:36.026Z,18.30
2022-08-05T02:21:14.971Z,18.32
2022-08-05T02:23:55.244Z,18.34
2022-08-05T02:26:55.324Z,18.33
2022-08-05T02:29:58.101Z,18.37
2022-08-05T02:32:19.765Z,18.29
2022-08-05T02:34:55.846Z,17.46
2022-08-05T02:37:26.785Z,18.27
2022-08-05T02:40:03.309Z,18.13
2022-08-05T02:42:35.981Z,18.06
2022-08-05T02:45:07.170Z,18.30
2022-08-05T02:48:06.505Z,18.30
2022-08-05T02:50:29.264Z,13.09
2022-08-05T02:53:11.529Z,18.07
2022-08-05T02:58:26.885Z,17.04
2022-08-05T03:04:43.885Z,16.11
2022-08-05T03:07:59.123Z,16.83
2022-08-05T03:10:37.451Z,17.60
2022-08-05T03:18:12.687Z,16.58
2022-08-05T03:24:47.169Z,15.00
2022-08-05T03:27:18.070Z,14.15
2022-08-05T03:30:08.777Z,14.02
2022-08-05T03:32:41.580Z,17.09
2022-08-05T03:35:13.459Z,13.71
2022-08-05T03:37:41.119Z,17.74
2022-08-05T03:40:13.241Z,18.05
2022-08-05T03:42:52.408Z,18.05
2022-08-05T03:45:21.788Z,17.69
2022-08-05T03:47:49.662Z,18.03
2022-08-05T03:50:18.668Z,17.53
2022-08-05T03:55:51.842Z,17.72
2022-08-05T03:56:10.475Z,17.25
2022-08-05T03:58:41.282Z,17.60
2022-08-05T04:01:11.181Z,18.04
2022-08-05T04:04:10.099Z,17.65
2022-08-05T04:06:33.926Z,18.06
2022-08-05T04:09:01.800Z,18.10
2022-08-05T04:11:47.310Z,17.41
2022-08-05T04:14:17.875Z,18.14
2022-08-05T04:16:44.880Z,17.93
2022-08-05T04:19:12.995Z,17.13
2022-08-05T04:22:09.956Z,16.01
2022-08-05T04:24:27.740Z,16.75
2022-08-05T04:26:54.562Z,18.02
2022-08-05T04:29:24.708Z,17.92
2022-08-05T04:31:53.627Z,18.13
2022-08-05T04:34:33.004Z,17.43
2022-08-05T04:37:01.023Z,17.73
2022-08-05T04:39:29.927Z,18.22
2022-08-05T04:41:56.383Z,17.23
2022-08-05T04:44:30.133Z,17.22
2022-08-05T04:46:59.935Z,17.88
2022-08-05T04:50:01.022Z,17.98
2022-08-05T04:52:24.307Z,18.21
2022-08-05T04:54:54.250Z,18.24
2022-08-05T04:57:24.259Z,17.69
2022-08-05T04:59:56.171Z,17.66
2022-08-05T05:02:36.407Z,18.26
2022-08-05T05:05:16.886Z,17.97
2022-08-05T05:07:56.194Z,17.66
2022-08-05T05:10:28.917Z,18.18
2022-08-05T05:12:56.258Z,17.03
2022-08-05T05:16:02.352Z,17.11
2022-08-05T05:18:27.934Z,17.02
2022-08-05T05:20:58.494Z,18.06
2022-08-05T05:23:25.234Z,17.80
2022-08-05T05:25:51.759Z,18.17
2022-08-05T05:28:19.122Z,18.51
2022-08-05T05:30:49.745Z,17.98
2022-08-05T05:33:17.543Z,17.94
2022-08-05T05:35:48.113Z,17.89
2022-08-05T05:38:26.928Z,17.92
2022-08-05T05:40:57.421Z,17.49
2022-08-05T05:43:57.396Z,18.57
2022-08-05T05:46:17.221Z,18.21
2022-08-05T05:48:45.864Z,18.52
2022-08-05T05:51:18.763Z,18.71
2022-08-05T05:53:58.343Z,18.47
2022-08-05T05:56:32.806Z,18.61
2022-08-05T05:59:06.358Z,18.20
2022-08-05T06:01:37.688Z,18.67
2022-08-05T06:04:07.302Z,18.69
2022-08-05T06:06:36.612Z,17.82
2022-08-05T06:09:05.645Z,18.68
2022-08-05T06:11:34.962Z,18.80
2022-08-05T06:14:06.032Z,18.72
2022-08-05T06:16:36.832Z,18.76
2022-08-05T06:19:05.841Z,18.72
2022-08-05T06:21:36.867Z,18.71
2022-08-05T06:24:11.714Z,18.68
2022-08-05T06:26:39.765Z,18.29
2022-08-05T06:29:25.423Z,18.53
2022-08-05T06:32:21.388Z,18.51
2022-08-05T06:34:53.500Z,18.49
2022-08-05T06:37:55.896Z,18.46
2022-08-05T06:40:07.843Z,18.36
2022-08-05T06:42:34.386Z,18.37
2022-08-05T06:45:06.457Z,18.18
2022-08-05T06:48:36.901Z,18.38
2022-08-05T06:50:27.284Z,17.91
2022-08-05T06:53:03.579Z,18.21
2022-08-05T06:55:37.718Z,18.38
2022-08-05T06:58:20.326Z,18.38
2022-08-05T07:00:52.288Z,18.05
2022-08-05T07:03:19.314Z,17.84
2022-08-05T07:05:48.705Z,17.87
2022-08-05T07:08:19.437Z,18.10
2022-08-05T07:10:52.315Z,18.02
2022-08-05T07:13:58.488Z,18.00
2022-08-05T07:18:00.996Z,17.97
2022-08-05T07:22:17.064Z,17.70
2022-08-05T07:24:43.941Z,17.57
2022-08-05T07:27:19.358Z,17.42
2022-08-05T07:30:23.887Z,17.56
2022-08-05T07:32:38.406Z,17.15
2022-08-05T07:35:55.969Z,17.55
2022-08-05T07:38:05.015Z,17.20
2022-08-05T07:40:38.963Z,17.60
2022-08-05T07:43:20.387Z,17.58
2022-08-05T07:45:57.067Z,17.61
2022-08-05T07:49:02.503Z,17.28
2022-08-05T07:51:23.300Z,17.60
2022-08-05T07:53:57.567Z,17.51
2022-08-05T07:57:00.412Z,17.58
2022-08-05T07:59:11.366Z,17.59
2022-08-05T08:01:41.690Z,17.50
2022-08-05T08:04:22.960Z,17.55
2022-08-05T08:07:03.958Z,17.33
2022-08-05T08:09:32.042Z,17.42
2022-08-05T08:12:01.892Z,17.00
2022-08-05T08:14:32.853Z,17.56
2022-08-05T08:16:59.669Z,17.47
2022-08-05T08:20:10.186Z,17.46
2022-08-05T08:22:15.890Z,17.33
2022-08-05T08:24:51.950Z,17.42
2022-08-05T08:27:18.943Z,17.56
2022-08-05T08:30:06.087Z,17.55
2022-08-05T08:32:36.372Z,17.45
2022-08-05T08:35:13.726Z,17.43
2022-08-05T08:37:40.464Z,17.27
2022-08-05T08:40:12.575Z,17.12
2022-08-05T08:42:46.737Z,16.62
2022-08-05T08:45:26.738Z,16.61
2022-08-05T08:48:12.591Z,16.40
2022-08-05T08:51:03.960Z,16.70
2022-08-05T08:53:37.229Z,16.97
2022-08-05T08:56:06.293Z,16.60
2022-08-05T08:58:43.111Z,17.10
2022-08-05T09:01:16.455Z,16.84
2022-08-05T09:03:47.470Z,17.13
2022-08-05T09:06:18.661Z,17.00
2022-08-05T09:08:53.377Z,16.83
2022-08-05T09:11:53.370Z,17.03
2022-08-05T09:14:54.856Z,16.61
2022-08-05T09:16:55.868Z,17.08
2022-08-05T09:19:27.715Z,17.16
2022-08-05T09:22:22.226Z,17.02
2022-08-05T09:24:46.929Z,17.39
2022-08-05T09:28:05.094Z,17.24
2022-08-05T09:30:23.358Z,17.29
2022-08-05T09:32:51.722Z,17.29
2022-08-05T09:35:26.722Z,16.85
2022-08-05T09:38:16.594Z,17.46
2022-08-05T09:40:51.964Z,17.54
2022-08-05T09:43:40.461Z,17.49
2022-08-05T09:46:30.261Z,17.62
2022-08-05T09:49:07.283Z,17.74
2022-08-05T09:51:49.943Z,17.77
2022-08-05T09:54:21.381Z,17.93
2022-08-05T09:56:57.592Z,18.05
2022-08-05T09:59:28.228Z,18.26
2022-08-05T10:01:57.682Z,18.55
2022-08-05T10:04:35.903Z,18.40
2022-08-05T10:07:19.579Z,18.83
2022-08-05T10:10:15.244Z,19.25
2022-08-05T10:12:49.674Z,19.62
2022-08-05T10:15:20.255Z,19.89
2022-08-05T10:18:19.787Z,20.02
2022-08-05T10:20:49.065Z,20.15
2022-08-05T10:23:34.253Z,20.03
2022-08-05T10:26:14.540Z,20.48
2022-08-05T10:28:44.865Z,20.76
2022-08-05T10:32:52.970Z,17.05
2022-08-05T10:34:04.179Z,20.49
2022-08-05T10:36:35.993Z,20.71
2022-08-05T10:39:10.394Z,21.05
2022-08-05T10:42:02.032Z,20.57
2022-08-05T10:44:31.176Z,20.80
2022-08-05T10:46:57.985Z,20.88
2022-08-05T10:49:26.951Z,20.95
2022-08-05T10:52:00.229Z,21.43
2022-08-05T10:55:04.415Z,21.73
2022-08-05T10:57:33.668Z,21.72
2022-08-05T11:00:29.876Z,22.14
2022-08-05T11:03:23.193Z,22.33
2022-08-05T11:06:08.411Z,21.67
2022-08-05T11:08:38.112Z,21.64
2022-08-05T11:11:44.638Z,21.65
2022-08-05T11:15:01.053Z,21.10
2022-08-05T11:17:57.083Z,21.38
2022-08-05T11:20:32.989Z,21.84
2022-08-05T11:23:08.860Z,21.89
2022-08-05T11:26:05.849Z,21.38
2022-08-05T11:28:25.410Z,21.60
2022-08-05T11:30:58.484Z,21.82
2022-08-05T11:33:43.946Z,20.85
2022-08-05T11:36:34.213Z,21.27
2022-08-05T11:39:07.543Z,21.60
2022-08-05T11:42:01.430Z,21.54
2022-08-05T11:44:52.872Z,22.37
2022-08-05T11:47:48.510Z,21.32
2022-08-05T11:54:02.473Z,21.68
2022-08-05T11:57:08.497Z,22.16
2022-08-05T11:59:50.774Z,22.18
2022-08-05T12:02:24.306Z,22.39
2022-08-05T12:04:59.868Z,22.90
2022-08-05T12:08:08.931Z,23.02
2022-08-05T12:10:18.275Z,23.53
2022-08-05T12:12:59.929Z,22.93
2022-08-05T12:15:38.129Z,22.19
2022-08-05T12:18:10.967Z,22.28
2022-08-05T12:20:39.411Z,22.65
2022-08-05T12:23:13.808Z,23.17
2022-08-05T12:25:57.298Z,23.63
2022-08-05T12:28:39.268Z,23.70
2022-08-05T12:31:06.318Z,23.61
2022-08-05T12:33:36.367Z,23.25
2022-08-05T12:36:09.199Z,22.68
2022-08-05T12:38:39.481Z,22.81
2022-08-05T12:41:14.124Z,22.50
2022-08-05T12:43:51.570Z,22.07
2022-08-05T12:46:29.216Z,22.40
2022-08-05T12:49:25.622Z,23.07
2022-08-05T12:52:23.809Z,22.90
2022-08-05T12:54:55.010Z,23.15
2022-08-05T12:57:23.423Z,23.50
2022-08-05T13:01:56.754Z,22.57
2022-08-05T13:02:50.999Z,23.85
2022-08-05T13:05:23.828Z,24.28
2022-08-05T13:08:00.264Z,24.33
2022-08-05T13:10:31.013Z,24.01
2022-08-05T13:12:58.474Z,23.93
2022-08-05T13:15:35.932Z,24.02
2022-08-05T13:18:20.165Z,24.11
2022-08-05T13:20:51.187Z,24.12
2022-08-05T13:23:22.562Z,24.21
2022-08-05T13:25:58.853Z,24.38
2022-08-05T13:28:27.588Z,24.35
2022-08-05T13:30:54.286Z,23.29
2022-08-05T13:34:21.145Z,23.55
2022-08-05T13:36:09.186Z,23.20
2022-08-05T13:38:38.428Z,22.70
2022-08-05T13:41:12.340Z,22.21
2022-08-05T13:43:45.235Z,22.05
2022-08-05T13:46:44.339Z,21.09
2022-08-05T13:49:10.182Z,20.38
2022-08-05T13:51:41.551Z,20.75
2022-08-05T13:54:15.159Z,20.22
2022-08-05T13:56:45.597Z,20.27
2022-08-05T13:59:23.998Z,21.32
2022-08-05T14:01:59.590Z,21.97
2022-08-05T14:04:49.769Z,22.60
2022-08-05T14:07:25.544Z,21.77
2022-08-05T14:10:28.960Z,22.46
2022-08-05T14:12:57.706Z,22.47
2022-08-05T14:16:09.286Z,22.12
2022-08-05T14:18:14.767Z,22.69
2022-08-05T14:20:48.777Z,22.56
2022-08-05T14:23:24.542Z,22.56
2022-08-05T14:25:54.511Z,21.98
2022-08-05T14:28:26.880Z,22.04
2022-08-05T14:30:54.699Z,21.63
2022-08-05T14:33:23.085Z,20.72
2022-08-05T14:35:51.789Z,21.94
2022-08-05T14:38:32.384Z,21.41
2022-08-05T14:41:05.974Z,21.34
2022-08-05T14:43:57.732Z,21.75
2022-08-05T14:46:23.369Z,21.50
2022-08-05T14:48:55.540Z,21.46
2022-08-05T14:51:22.172Z,21.66
2022-08-05T14:54:26.009Z,21.47
2022-08-05T14:56:37.967Z,22.10
2022-08-05T14:59:11.427Z,22.29
2022-08-05T15:01:48.486Z,22.22
2022-08-05T15:04:17.093Z,22.15
2022-08-05T15:06:49.319Z,21.94
2022-08-05T15:09:51.919Z,22.41
2022-08-05T15:12:09.120Z,22.25
2022-08-05T15:14:48.407Z,21.55
2022-08-05T15:17:45.867Z,22.58
2022-08-05T15:20:06.065Z,22.32
2022-08-05T15:22:33.218Z,22.25
2022-08-05T15:25:00.264Z,22.64
2022-08-05T15:27:38.387Z,22.35
2022-08-05T15:30:11.031Z,22.01
2022-08-05T15:32:49.944Z,22.00
2022-08-05T15:35:16.456Z,22.59
2022-08-05T15:38:09.209Z,22.86
2022-08-05T15:41:01.899Z,23.05
2022-08-05T15:43:19.913Z,23.02
2022-08-05T15:45:47.575Z,23.22
2022-08-05T15:48:15.115Z,23.06
2022-08-05T15:50:43.674Z,22.58
2022-08-05T15:53:14.482Z,22.55
2022-08-05T15:56:04.285Z,22.61
2022-08-05T15:58:29.254Z,22.47
2022-08-05T16:01:18.374Z,22.42
2022-08-05T16:03:50.283Z,22.45
2022-08-05T16:06:20.159Z,22.63
2022-08-05T16:08:47.750Z,22.53
2022-08-05T16:11:17.093Z,22.69
2022-08-05T16:13:47.032Z,21.57
2022-08-05T16:16:15.548Z,22.79
2022-08-05T16:18:52.747Z,22.37
2022-08-05T16:21:20.705Z,22.68
2022-08-05T16:24:40.743Z,21.83
2022-08-05T16:27:03.916Z,22.25
2022-08-05T16:29:47.248Z,22.28
2022-08-05T16:32:17.386Z,21.38
2022-08-05T16:34:50.904Z,22.15
2022-08-05T16:38:16.394Z,22.06
2022-08-05T16:40:13.433Z,21.95
2022-08-05T16:42:51.992Z,21.52
2022-08-05T16:46:07.794Z,21.65
2022-08-05T16:48:05.254Z,22.01
2022-08-05T16:50:31.927Z,21.76
2022-08-05T16:53:12.503Z,22.09
2022-08-05T16:55:48.636Z,21.91
2022-08-05T16:58:15.394Z,22.23
2022-08-05T17:00:49.801Z,22.14
2022-08-05T17:03:20.122Z,22.08
2022-08-05T17:08:36.088Z,22.04
2022-08-05T17:11:12.751Z,21.94
2022-08-05T17:13:47.482Z,20.17
2022-08-05T17:16:33.801Z,21.94
2022-08-05T17:19:01.970Z,21.04
2022-08-05T17:21:35.405Z,21.81
2022-08-05T17:24:19.757Z,21.43
2022-08-05T17:26:52.522Z,21.06
2022-08-05T17:29:22.319Z,20.84
2022-08-05T17:31:59.411Z,21.55
2022-08-05T17:34:29.756Z,21.07
2022-08-05T17:36:59.311Z,21.50
2022-08-05T17:39:34.230Z,21.31
2022-08-05T17:42:17.616Z,20.39
2022-08-05T17:44:51.393Z,20.26
2022-08-05T17:47:21.759Z,20.31
2022-08-05T17:50:00.372Z,20.01
2022-08-05T17:52:53.206Z,21.08
2022-08-05T17:55:34.354Z,19.93
2022-08-05T17:58:13.071Z,21.07
2022-08-05T18:00:45.236Z,20.41
2022-08-05T18:03:39.156Z,20.87
2022-08-05T18:06:05.894Z,20.53
2022-08-05T18:08:37.071Z,20.67
2022-08-05T18:11:07.333Z,20.53
2022-08-05T18:13:36.825Z,19.96
2022-08-05T18:16:13.356Z,19.90
2022-08-05T18:18:48.607Z,20.07
2022-08-05T18:21:20.100Z,18.65
2022-08-05T18:23:49.277Z,20.04
2022-08-05T18:26:21.473Z,19.97
2022-08-05T18:28:54.672Z,19.91
2022-08-05T18:31:25.886Z,19.87
2022-08-05T18:34:01.012Z,19.83
2022-08-05T18:36:38.669Z,18.76
2022-08-05T18:39:22.479Z,19.30
2022-08-05T18:42:06.310Z,19.56
2022-08-05T18:44:49.384Z,19.48
2022-08-05T18:47:22.779Z,19.38
2022-08-05T18:50:12.027Z,18.76
2022-08-05T18:52:50.852Z,18.71
2022-08-05T18:55:18.690Z,19.08
2022-08-05T18:57:52.896Z,18.95
2022-08-05T19:00:27.262Z,18.64
2022-08-05T19:02:56.495Z,18.76
2022-08-05T19:06:13.096Z,18.75
2022-08-05T19:08:15.357Z,18.05
2022-08-05T19:10:48.866Z,18.60
2022-08-05T19:13:17.065Z,17.73
2022-08-05T19:15:58.765Z,17.61
2022-08-05T19:18:27.148Z,18.17
2022-08-05T19:20:54.527Z,18.05
2022-08-05T19:24:06.210Z,16.93
2022-08-05T19:26:09.570Z,17.05
2022-08-05T19:28:43.362Z,18.12
2022-08-05T19:31:13.401Z,17.59
2022-08-05T19:33:48.687Z,18.01
2022-08-05T19:36:25.793Z,16.73
2022-08-05T19:38:55.117Z,16.64
2022-08-05T19:41:58.250Z,17.00
2022-08-05T19:44:14.939Z,17.69
2022-08-05T19:46:43.748Z,16.20
2022-08-05T19:49:12.552Z,17.53
2022-08-05T19:52:09.305Z,16.95
2022-08-05T19:54:41.447Z,15.86
2022-08-05T19:57:10.118Z,16.37
2022-08-05T19:59:54.686Z,17.11
2022-08-05T20:02:31.248Z,16.67
2022-08-05T20:04:59.638Z,16.24
2022-08-05T20:07:47.386Z,16.54
2022-08-05T20:10:16.257Z,17.09
2022-08-05T20:12:47.578Z,16.73
2022-08-05T20:15:23.189Z,17.22
2022-08-05T20:18:10.671Z,16.21
2022-08-05T20:20:55.366Z,16.20
2022-08-05T20:23:40.306Z,16.02
2022-08-05T20:26:15.390Z,16.86
2022-08-05T20:28:49.398Z,16.87
2022-08-05T20:31:21.777Z,16.83
2022-08-05T20:33:50.678Z,14.91
2022-08-05T20:36:24.989Z,15.52
2022-08-05T20:38:58.091Z,16.68
2022-08-05T20:41:44.211Z,15.10
2022-08-05T20:44:29.424Z,16.54
2022-08-05T20:47:02.165Z,16.51
2022-08-05T20:49:33.193Z,15.50
2022-08-05T20:52:07.394Z,16.11
2022-08-05T20:54:43.066Z,16.17
2022-08-05T20:57:42.313Z,16.28
2022-08-05T21:00:41.029Z,15.74
2022-08-05T21:03:06.979Z,15.77
2022-08-05T21:05:53.653Z,15.48
2022-08-05T21:08:26.860Z,14.06
2022-08-05T21:12:09.147Z,14.33
2022-08-05T21:14:55.342Z,15.82
2022-08-05T21:17:25.195Z,15.73
2022-08-05T21:20:32.657Z,15.69
2022-08-05T21:23:00.513Z,15.54
2022-08-05T21:28:18.505Z,15.03
2022-08-05T21:30:51.304Z,14.73
2022-08-05T21:33:53.022Z,15.40
2022-08-05T21:36:29.759Z,14.69
2022-08-05T21:38:57.178Z,15.30
2022-08-05T21:41:26.022Z,15.26
2022-08-05T21:44:04.939Z,15.21
2022-08-05T21:46:58.098Z,15.16
2022-08-05T21:49:48.114Z,15.14
2022-08-05T21:52:22.259Z,15.13
2022-08-05T21:55:06.147Z,14.02
2022-08-05T21:57:54.066Z,12.08
2022-08-05T22:00:23.805Z,14.83
2022-08-05T22:03:02.473Z,14.91
2022-08-05T22:05:49.148Z,13.14
2022-08-05T22:09:56.988Z,13.62
2022-08-05T22:11:16.197Z,14.82
2022-08-05T22:14:05.862Z,14.74
2022-08-05T22:16:51.931Z,14.65
2022-08-05T22:20:00.390Z,14.16
2022-08-05T22:22:12.342Z,14.59
2022-08-05T22:25:02.423Z,14.54
2022-08-05T22:28:09.619Z,14.48
2022-08-05T22:30:56.845Z,14.20
2022-08-05T22:34:03.320Z,14.32
2022-08-05T22:36:24.300Z,12.40
2022-08-05T22:39:04.185Z,14.20
2022-08-05T22:42:09.898Z,14.16
2022-08-05T22:44:48.457Z,14.10
2022-08-05T22:47:29.365Z,14.04
2022-08-05T22:50:21.750Z,14.02
2022-08-05T22:52:48.880Z,13.97
2022-08-05T22:55:19.150Z,13.03
2022-08-05T22:57:48.890Z,13.20
2022-08-05T23:00:18.285Z,13.87
2022-08-05T23:02:48.320Z,13.83
2022-08-05T23:05:29.112Z,13.76
2022-08-05T23:08:08.429Z,13.71
2022-08-05T23:10:41.365Z,13.47
2022-08-05T23:13:08.185Z,12.02
2022-08-05T23:15:50.302Z,12.34
2022-08-05T23:18:17.218Z,12.44
2022-08-05T23:20:52.334Z,12.75
2022-08-05T23:23:19.384Z,13.37
2022-08-05T23:25:51.905Z,13.35
2022-08-05T23:28:28.699Z,13.35
2022-08-05T23:30:56.577Z,13.06
2022-08-05T23:34:04.281Z,10.04
2022-08-05T23:36:40.093Z,12.20
2022-08-05T23:39:17.630Z,13.08
2022-08-05T23:41:59.028Z,13.23
2022-08-05T23:44:31.143Z,13.22
2022-08-05T23:47:00.597Z,13.17
2022-08-05T23:49:33.797Z,13.10
2022-08-05T23:52:21.782Z,13.06
2022-08-05T23:54:57.578Z,13.02
2022-08-05T23:57:28.113Z,12.99
